Hlavní strana
METAR-TAF:

METAR-TAF

Letiště :

Örebro, Švédsko

zeměpisná šířka: 59-14N, zeměpisná délka: 015-03E, výška: 57 m

Aktuální stav počasí

Zpráva byla vytvořena před 23 minutami, v 17:50 UTC
Severoseverozápadní vítr 10 kt
Teplota 1°C
Vlhkost vzduchu 34%
Tlak 1015 hPa
Viditelnost 10 km a více

METAR: ESOE 071750Z AUTO 33010KT 9999 NCD 01/M13 Q1015

Čas: 19:13 (18:13 UTC)


TAF: chybějící

Stav a předpovědi počasí z více než 4 000 letišť (zprávy METAR a TAF).

Červené a žluté tečky na mapě představují dostupné meteorologické stanice.

Když kurzor umístíte na tečku, zobrazí se název stanice.

Pak kliknutím zobrazíte stav a předpověď počasí.

Chcete-li změnit mapu, kliknutím na zelené tlačítko se znaménkem +mapu přiblížíte, kliknutím na zelené tlačítko se znaménkem – mapu oddálíte a kliknutím na zelené šipky přejdete na sousední mapy.


METAR-TAF: